Time;durP1;ratioP1;P1;durP2;ratioP2;P2;SDS_P1;SDS_P2;PMS_P1;PMS_P2;Temp;Humidity;BMP_temperature;BMP_pressure;BME280_temperature;BME280_humidity;BME280_pressure;Samples;Min_cycle;Max_cycle;Signal;HPM_P1;HPM_P2
2022/12/27 00:02:11;;;;;;;11.60;2.83;;;3.00;60.80;;;;;;4994793;28;20516;-86
2022/12/27 00:04:38;;;;;;;9.55;2.33;;;2.90;58.00;;;;;;4963869;28;20137;-87
2022/12/27 00:07:12;;;;;;;12.10;3.10;;;2.90;41.30;;;;;;4979884;28;20046;-86
2022/12/27 00:09:43;;;;;;;9.35;2.63;;;3.10;59.00;;;;;;4976560;28;20492;-85
2022/12/27 00:12:11;;;;;;;12.43;3.55;;;3.00;60.40;;;;;;4972956;28;20407;-87
2022/12/27 00:14:39;;;;;;;12.07;2.80;;;3.10;64.80;;;;;;4977283;28;20112;-84
2022/12/27 00:17:08;;;;;;;12.00;2.90;;;3.10;51.40;;;;;;4979568;28;20483;-85
2022/12/27 00:19:38;;;;;;;12.77;2.90;;;3.00;63.30;;;;;;4982920;28;20062;-87
2022/12/27 00:22:14;;;;;;;10.57;2.75;;;3.10;56.70;;;;;;4995870;28;20386;-85
2022/12/27 00:24:39;;;;;;;15.32;3.17;;;3.00;58.00;;;;;;4964129;28;20050;-85
2022/12/27 00:27:29;;;;;;;;;;;;;;;;;;;;;
2022/12/27 00:30:13;;;;;;;;;;;;;;;;;;;;;
2022/12/27 00:32:45;;;;;;;17.08;3.63;;;3.20;81.30;;;;;;4982654;28;20041;-85
2022/12/27 00:35:20;;;;;;;12.50;3.00;;;3.30;89.80;;;;;;4993957;28;20253;-85
2022/12/27 00:37:46;;;;;;;13.57;3.13;;;3.20;92.00;;;;;;4992194;28;20076;-83
2022/12/27 00:40:21;;;;;;;9.05;2.92;;;3.20;98.70;;;;;;4978814;28;20050;-84
2022/12/27 00:42:47;;;;;;;9.48;3.08;;;3.30;99.90;;;;;;4934964;28;20057;-84
2022/12/27 00:45:14;;;;;;;12.10;2.90;;;3.30;99.90;;;;;;4967037;28;20129;-85
2022/12/27 00:47:52;;;;;;;9.52;2.78;;;3.30;99.90;;;;;;4979682;28;20543;-85
2022/12/27 00:50:18;;;;;;;15.30;3.15;;;3.30;99.90;;;;;;4969719;28;20077;-84
2022/12/27 00:52:49;;;;;;;14.95;2.90;;;3.20;99.90;;;;;;4995727;28;20077;-85
2022/12/27 00:55:19;;;;;;;13.45;3.08;;;3.20;99.90;;;;;;4990619;28;20049;-85
2022/12/27 00:57:48;;;;;;;14.90;2.50;;;3.10;99.90;;;;;;4979178;28;20057;-87
2022/12/27 01:00:28;;;;;;;9.27;2.80;;;3.00;99.90;;;;;;4981468;28;20065;-85
2022/12/27 01:02:57;;;;;;;10.15;2.97;;;3.00;99.90;;;;;;4986844;28;20073;-85
2022/12/27 01:05:41;;;;;;;;;;;;;;;;;;;;;
2022/12/27 01:08:07;;;;;;;12.20;2.70;;;2.80;99.90;;;;;;4988967;28;20137;-85
2022/12/27 01:10:35;;;;;;;14.57;3.05;;;2.90;99.90;;;;;;4973240;28;20133;-86
2022/12/27 01:13:02;;;;;;;11.68;3.10;;;2.90;99.90;;;;;;4966595;28;20058;-85
2022/12/27 01:15:41;;;;;;;;;;;;;;;;;;;;;
2022/12/27 01:18:17;;;;;;;;;;;;;;;;;;;;;
2022/12/27 01:20:46;;;;;;;19.83;3.28;;;2.90;99.90;;;;;;4996772;28;20046;-88
2022/12/27 01:23:16;;;;;;;11.15;2.80;;;3.00;99.90;;;;;;4985644;28;20057;-88
2022/12/27 01:25:54;;;;;;;14.43;2.60;;;2.90;99.90;;;;;;4964592;28;20065;-86
2022/12/27 01:28:19;;;;;;;11.27;3.33;;;2.90;99.90;;;;;;4955928;28;20084;-85
2022/12/27 01:30:50;;;;;;;12.20;2.17;;;3.00;99.90;;;;;;4978019;28;20047;-85
2022/12/27 01:33:16;;;;;;;8.32;2.50;;;3.00;99.90;;;;;;4958240;28;20062;-86
2022/12/27 01:35:44;;;;;;;11.45;2.72;;;2.90;99.90;;;;;;4975406;28;20045;-85
2022/12/27 01:38:23;;;;;;;9.02;2.70;;;3.00;99.90;;;;;;4977416;28;20042;-85
2022/12/27 01:42:50;;;;;;;9.65;2.83;;;3.10;99.90;;;;;;4975479;28;20057;-85
2022/12/27 01:43:39;;;;;;;12.13;2.35;;;3.00;99.90;;;;;;4986249;28;20105;-86
2022/12/27 01:46:08;;;;;;;17.15;2.88;;;3.20;99.90;;;;;;4977312;28;20424;-85
2022/12/27 01:48:47;;;;;;;10.30;2.20;;;3.00;99.90;;;;;;4977943;28;20053;-85
2022/12/27 01:51:20;;;;;;;8.75;2.05;;;3.20;99.90;;;;;;4976432;28;20125;-86
2022/12/27 01:53:54;;;;;;;10.23;2.05;;;3.20;99.90;;;;;;4972860;28;20079;-87
2022/12/27 01:56:31;;;;;;;8.70;3.00;;;3.10;99.90;;;;;;4977493;28;20068;-87
2022/12/27 01:59:08;;;;;;;8.75;2.17;;;3.20;99.90;;;;;;4977113;28;20364;-85
2022/12/27 02:01:44;;;;;;;19.65;2.22;;;3.10;99.90;;;;;;4994615;28;20080;-87
2022/12/27 02:04:15;;;;;;;14.57;3.53;;;3.10;99.90;;;;;;4977366;28;20045;-84
2022/12/27 02:06:44;;;;;;;13.05;2.15;;;3.10;99.90;;;;;;4976236;28;20092;-83
2022/12/27 02:09:18;;;;;;;13.65;2.40;;;3.10;99.90;;;;;;4995082;28;20133;-83
2022/12/27 02:12:00;;;;;;;13.40;2.33;;;3.10;99.90;;;;;;4978660;28;20061;-83
2022/12/27 02:15:00;;;;;;;11.23;2.30;;;3.10;99.90;;;;;;4994420;28;20145;-84
2022/12/27 02:17:34;;;;;;;8.70;2.08;;;3.20;99.90;;;;;;4971283;28;20054;-83
2022/12/27 02:20:14;;;;;;;9.13;2.17;;;3.20;99.90;;;;;;4979555;28;20038;-83
2022/12/27 02:25:35;;;;;;;12.30;3.13;;;3.30;99.90;;;;;;4993723;28;20507;-84
2022/12/27 02:28:24;;;;;;;8.40;2.10;;;3.40;99.90;;;;;;4965749;28;20045;-85
2022/12/27 02:30:57;;;;;;;9.70;2.72;;;3.50;99.90;;;;;;4978020;28;20167;-83
2022/12/27 02:33:28;;;;;;;9.48;2.00;;;3.60;99.90;;;;;;4993797;28;20139;-83
2022/12/27 02:36:03;;;;;;;10.50;2.03;;;3.60;99.90;;;;;;4976051;28;20049;-83
2022/12/27 02:38:36;;;;;;;8.68;2.22;;;3.70;99.90;;;;;;4977383;28;20132;-85
2022/12/27 02:58:56;;;;;;;16.50;1.98;;;3.90;97.30;;;;;;4991439;28;20046;-86
2022/12/27 03:04:39;;;;;;;13.35;2.42;;;3.90;99.90;;;;;;4985937;28;20444;-84
2022/12/27 03:07:20;;;;;;;11.07;2.70;;;4.00;99.90;;;;;;4971757;28;20377;-84
2022/12/27 03:16:13;;;;;;;12.77;2.65;;;4.00;99.90;;;;;;4992399;28;20591;-85
2022/12/27 03:27:35;;;;;;;14.32;3.20;;;3.90;99.90;;;;;;4978414;28;20050;-83
2022/12/27 03:33:14;;;;;;;15.88;2.90;;;3.90;99.90;;;;;;5002645;28;20650;-83
2022/12/27 03:38:42;;;;;;;14.75;3.17;;;3.70;99.90;;;;;;4993967;28;20136;-83
2022/12/27 03:43:54;;;;;;;;;;;3.70;99.90;;;;;;4982013;28;20054;-84
2022/12/27 03:46:34;;;;;;;8.13;2.23;;;3.70;99.90;;;;;;4989617;28;19921;-83
2022/12/27 03:49:25;;;;;;;11.88;1.88;;;3.70;99.90;;;;;;4990864;28;20049;-86
2022/12/27 03:52:02;;;;;;;11.57;2.15;;;3.70;99.90;;;;;;4978894;28;20057;-84
2022/12/27 03:54:37;;;;;;;17.35;2.92;;;3.70;99.90;;;;;;4996548;28;20522;-84
2022/12/27 03:57:24;;;;;;;10.60;2.22;;;3.70;99.90;;;;;;4974988;28;20046;-83
2022/12/27 03:59:50;;;;;;;13.75;4.00;;;3.70;99.90;;;;;;4990391;28;20057;-82
2022/12/27 04:02:16;;;;;;;23.00;3.08;;;3.60;99.90;;;;;;4996307;28;20046;-81
2022/12/27 04:04:42;;;;;;;12.75;1.95;;;3.60;99.90;;;;;;4978185;28;20077;-82
2022/12/27 04:07:07;;;;;;;15.70;2.50;;;3.70;99.90;;;;;;4967994;28;20479;-80
2022/12/27 04:36:56;;;;;;;11.55;2.05;;;3.80;99.90;;;;;;4982131;28;20141;-81
2022/12/27 04:39:22;;;;;;;12.50;2.10;;;3.80;99.90;;;;;;4962670;28;20128;-87
2022/12/27 04:55:36;;;;;;;12.70;2.25;;;3.90;99.90;;;;;;4981371;28;20045;-82
2022/12/27 04:58:02;;;;;;;12.85;1.92;;;3.90;99.90;;;;;;4959551;28;20388;-83
2022/12/27 05:03:23;;;;;;;17.42;2.13;;;3.90;99.90;;;;;;4996739;28;20049;-84
2022/12/27 05:05:51;;;;;;;16.48;2.55;;;3.90;99.90;;;;;;4993778;28;20502;-83
2022/12/27 05:13:58;;;;;;;14.27;1.98;;;3.50;99.90;;;;;;4991813;28;20050;-83
2022/12/27 05:16:33;;;;;;;14.73;2.90;;;3.40;99.90;;;;;;4976094;28;20050;-83
2022/12/27 05:18:59;;;;;;;15.73;2.88;;;3.40;99.90;;;;;;4978932;28;20100;-83
2022/12/27 05:21:26;;;;;;;14.32;2.58;;;3.30;99.90;;;;;;4992096;28;20046;-83
2022/12/27 05:26:37;;;;;;;8.07;2.30;;;3.30;99.90;;;;;;4981147;28;20042;-83
2022/12/27 05:29:04;;;;;;;12.30;3.33;;;3.40;99.90;;;;;;4977812;28;20565;-83
2022/12/27 05:31:30;;;;;;;23.13;5.70;;;3.40;99.90;;;;;;4971468;28;20049;-83
2022/12/27 05:33:57;;;;;;;13.32;2.83;;;3.50;99.90;;;;;;4971545;28;20050;-84
2022/12/27 05:36:23;;;;;;;18.50;3.20;;;3.40;99.90;;;;;;4948746;28;20046;-83
2022/12/27 05:38:49;;;;;;;12.40;2.80;;;3.30;99.90;;;;;;4976033;28;20074;-86
2022/12/27 05:41:15;;;;;;;15.55;3.20;;;3.30;99.90;;;;;;4977047;28;20539;-82
2022/12/27 05:43:41;;;;;;;19.55;3.22;;;3.30;99.90;;;;;;4992367;28;20577;-85
2022/12/27 05:46:16;;;;;;;9.68;2.72;;;3.40;99.90;;;;;;4942181;28;20046;-84
2022/12/27 05:48:43;;;;;;;18.45;3.10;;;3.40;99.90;;;;;;4980026;28;20056;-85
2022/12/27 05:51:20;;;;;;;11.13;3.28;;;3.50;99.90;;;;;;4972291;28;20042;-86
2022/12/27 05:53:46;;;;;;;15.00;3.40;;;3.50;99.90;;;;;;4976678;28;20050;-84
2022/12/27 05:56:17;;;;;;;16.17;2.60;;;3.40;99.90;;;;;;4993590;28;20069;-83
2022/12/27 05:58:44;;;;;;;9.63;2.60;;;3.50;99.90;;;;;;4988099;28;20511;-83
2022/12/27 06:01:13;;;;;;;13.57;2.80;;;3.50;99.90;;;;;;4989785;28;20149;-83
2022/12/27 06:03:38;;;;;;;11.48;3.00;;;3.50;99.90;;;;;;4985765;28;20049;-83
2022/12/27 06:06:04;;;;;;;18.23;4.40;;;3.40;99.90;;;;;;4960974;28;20041;-83
2022/12/27 06:08:31;;;;;;;10.73;2.90;;;3.40;99.90;;;;;;4976542;28;20092;-83
2022/12/27 06:11:02;;;;;;;14.07;3.05;;;3.30;99.90;;;;;;4985783;28;20089;-85
2022/12/27 06:13:31;;;;;;;20.50;4.22;;;3.10;99.90;;;;;;4972204;28;20053;-84
2022/12/27 06:16:03;;;;;;;21.15;3.13;;;3.10;99.90;;;;;;4962611;28;20064;-85
2022/12/27 06:18:31;;;;;;;14.68;3.22;;;3.00;99.90;;;;;;4981530;28;20124;-84
2022/12/27 06:21:07;;;;;;;12.38;2.63;;;2.90;99.90;;;;;;4964486;28;20053;-85
2022/12/27 06:23:34;;;;;;;15.57;2.83;;;2.90;99.90;;;;;;4974743;28;20081;-83
2022/12/27 06:26:09;;;;;;;17.15;2.97;;;2.80;99.90;;;;;;4970897;28;20120;-84
2022/12/27 06:28:35;;;;;;;18.48;3.20;;;2.90;99.90;;;;;;4974761;28;20057;-82
2022/12/27 06:31:01;;;;;;;18.50;2.50;;;3.00;99.90;;;;;;4957574;28;20050;-84
2022/12/27 06:33:27;;;;;;;18.08;3.75;;;3.10;99.90;;;;;;4973909;28;20395;-83
2022/12/27 06:35:53;;;;;;;8.02;1.67;;;3.10;99.90;;;;;;4975912;28;20046;-83
2022/12/27 06:38:19;;;;;;;9.02;2.40;;;3.10;99.90;;;;;;4968056;28;20152;-84
2022/12/27 06:40:47;;;;;;;7.13;1.67;;;3.00;99.90;;;;;;4944883;28;20045;-84
2022/12/27 06:43:13;;;;;;;6.82;1.48;;;2.90;99.90;;;;;;4975505;28;20056;-83
2022/12/27 06:45:41;;;;;;;11.43;2.08;;;2.90;99.90;;;;;;4960094;28;20081;-84
2022/12/27 06:48:07;;;;;;;7.72;1.70;;;2.80;99.90;;;;;;4975262;28;20081;-84
2022/12/27 06:50:33;;;;;;;6.65;1.95;;;2.80;99.90;;;;;;4954551;28;20088;-84
2022/12/27 06:53:01;;;;;;;9.65;2.40;;;2.80;99.90;;;;;;4956133;28;20495;-88
2022/12/27 06:55:27;;;;;;;11.45;1.80;;;2.70;99.90;;;;;;4975844;28;20049;-85
2022/12/27 06:57:53;;;;;;;11.40;2.10;;;2.70;99.90;;;;;;4976840;28;20093;-83
2022/12/27 07:00:21;;;;;;;8.80;2.25;;;2.60;99.90;;;;;;4970331;28;20050;-83
2022/12/27 07:02:47;;;;;;;14.60;2.45;;;2.50;99.90;;;;;;4989329;28;20053;-84
2022/12/27 07:05:13;;;;;;;12.60;2.40;;;2.50;99.90;;;;;;4972652;28;20508;-82
2022/12/27 07:07:39;;;;;;;17.63;3.10;;;2.40;99.90;;;;;;4958679;28;20052;-82
2022/12/27 07:10:05;;;;;;;14.77;3.30;;;2.40;99.90;;;;;;4973891;28;20070;-83
2022/12/27 07:12:31;;;;;;;17.60;3.40;;;2.50;99.90;;;;;;4951431;28;20108;-85
2022/12/27 07:14:56;;;;;;;13.60;3.35;;;2.50;99.90;;;;;;4976644;28;20041;-84
2022/12/27 07:17:22;;;;;;;16.85;3.45;;;2.60;99.90;;;;;;4978401;28;20043;-81
2022/12/27 07:19:48;;;;;;;20.90;3.13;;;2.70;99.90;;;;;;4963706;28;20042;-83
2022/12/27 07:22:13;;;;;;;17.85;3.22;;;2.80;99.90;;;;;;4963130;28;20446;-82
2022/12/27 07:24:39;;;;;;;23.33;3.60;;;2.90;99.90;;;;;;4958762;28;20081;-83
2022/12/27 07:27:05;;;;;;;18.73;4.20;;;2.90;99.90;;;;;;4952608;28;20062;-86
2022/12/27 07:29:30;;;;;;;15.65;3.22;;;2.90;99.90;;;;;;4977838;28;20064;-86
2022/12/27 07:31:56;;;;;;;16.88;3.63;;;2.90;99.90;;;;;;4996304;28;20125;-81
2022/12/27 07:34:21;;;;;;;18.55;3.63;;;3.00;99.90;;;;;;4975154;28;20058;-83
2022/12/27 07:36:47;;;;;;;15.70;4.03;;;3.00;99.90;;;;;;4977401;28;20334;-82
2022/12/27 07:39:13;;;;;;;19.17;4.50;;;3.00;99.90;;;;;;4942350;28;20053;-82
2022/12/27 07:41:38;;;;;;;15.13;3.90;;;3.00;99.90;;;;;;4968753;28;20507;-82
2022/12/27 07:44:04;;;;;;;17.10;3.75;;;3.00;99.90;;;;;;4975964;28;20107;-84
2022/12/27 07:46:31;;;;;;;29.92;5.32;;;3.00;99.90;;;;;;4987389;28;20412;-82
2022/12/27 07:48:58;;;;;;;20.83;4.32;;;3.00;99.90;;;;;;4983712;28;20442;-82
2022/12/27 07:51:25;;;;;;;16.85;4.65;;;3.00;99.90;;;;;;4970202;28;20139;-81
2022/12/27 07:53:51;;;;;;;23.38;4.68;;;2.90;99.90;;;;;;4991937;28;20047;-80
2022/12/27 07:56:20;;;;;;;26.42;6.22;;;2.90;99.90;;;;;;4994940;28;20042;-83
2022/12/27 07:58:47;;;;;;;26.73;7.78;;;2.90;99.90;;;;;;4991127;28;20069;-81
2022/12/27 08:01:15;;;;;;;23.60;6.93;;;2.90;99.90;;;;;;4976134;28;20097;-81
2022/12/27 08:03:41;;;;;;;16.80;5.22;;;2.90;99.90;;;;;;4944962;28;20053;-79
2022/12/27 08:06:17;;;;;;;24.33;5.70;;;2.90;99.90;;;;;;4976335;28;20137;-85
2022/12/27 08:08:50;;;;;;;16.77;5.95;;;2.90;99.90;;;;;;4990742;28;20080;-81
2022/12/27 08:11:15;;;;;;;22.35;6.30;;;2.90;99.90;;;;;;4963289;28;20081;-81
2022/12/27 08:13:41;;;;;;;22.83;5.57;;;2.90;99.90;;;;;;4994724;28;20088;-79
2022/12/27 08:16:13;;;;;;;20.10;6.03;;;2.90;99.90;;;;;;4978191;28;20403;-83
2022/12/27 08:18:39;;;;;;;23.58;8.57;;;3.00;99.90;;;;;;4975427;28;20484;-81
2022/12/27 08:21:05;;;;;;;16.67;5.55;;;3.10;99.90;;;;;;4962057;28;20108;-82
2022/12/27 08:23:31;;;;;;;23.52;8.80;;;3.10;99.90;;;;;;4971689;28;20100;-81
2022/12/27 08:25:56;;;;;;;26.00;6.78;;;3.10;99.90;;;;;;4972487;28;20132;-81
2022/12/27 08:28:22;;;;;;;24.30;6.00;;;3.20;99.90;;;;;;4972551;28;20049;-80
2022/12/27 08:30:48;;;;;;;11.98;5.10;;;3.20;99.90;;;;;;4973000;28;20084;-81
2022/12/27 08:33:16;;;;;;;15.82;4.05;;;3.00;99.90;;;;;;4964213;28;20387;-86
2022/12/27 08:35:43;;;;;;;15.32;4.07;;;3.00;99.90;;;;;;4980337;28;20046;-81
2022/12/27 08:38:10;;;;;;;20.05;4.50;;;3.00;99.90;;;;;;4996212;28;20104;-80
2022/12/27 08:40:40;;;;;;;12.98;3.47;;;3.00;99.90;;;;;;4960380;28;20054;-82
2022/12/27 08:43:06;;;;;;;19.98;4.00;;;3.00;99.90;;;;;;4989366;28;20046;-83
2022/12/27 08:45:32;;;;;;;17.65;3.47;;;3.00;99.90;;;;;;4979061;28;20066;-83
2022/12/27 08:51:59;;;;;;;16.17;3.85;;;3.10;99.90;;;;;;5015209;28;20068;-82
2022/12/27 08:54:44;;;;;;;12.80;4.10;;;3.00;99.90;;;;;;4981553;28;20081;-82
2022/12/27 08:57:10;;;;;;;13.32;3.60;;;3.10;99.90;;;;;;4978932;28;20554;-82
2022/12/27 08:59:36;;;;;;;16.20;4.30;;;3.10;99.90;;;;;;4977815;28;20193;-81
2022/12/27 09:02:01;;;;;;;20.33;4.50;;;3.20;99.90;;;;;;4992057;28;20050;-83
2022/12/27 09:04:27;;;;;;;16.73;4.38;;;3.10;99.90;;;;;;4956130;28;20368;-81
2022/12/27 09:06:53;;;;;;;16.35;4.30;;;3.10;99.90;;;;;;4977181;28;20452;-81
2022/12/27 09:09:18;;;;;;;18.98;4.20;;;3.20;99.90;;;;;;4955337;28;20111;-86
2022/12/27 09:11:45;;;;;;;13.25;3.78;;;3.10;99.90;;;;;;4959599;28;20401;-82
2022/12/27 09:14:11;;;;;;;16.75;3.78;;;3.30;99.90;;;;;;4944188;28;20051;-81
2022/12/27 09:16:37;;;;;;;21.13;4.30;;;3.30;99.90;;;;;;4978713;28;20054;-82
2022/12/27 09:19:03;;;;;;;17.63;4.10;;;3.30;99.90;;;;;;4963224;28;20046;-81
2022/12/27 09:21:30;;;;;;;20.42;4.40;;;3.30;99.90;;;;;;4963002;28;20076;-82
2022/12/27 09:23:56;;;;;;;20.33;3.60;;;3.30;99.90;;;;;;4977491;28;20056;-82
2022/12/27 09:26:25;;;;;;;16.15;4.18;;;3.40;99.90;;;;;;4974810;28;20564;-82
2022/12/27 09:28:52;;;;;;;15.93;3.90;;;3.30;99.90;;;;;;4979186;28;20450;-81
2022/12/27 09:31:18;;;;;;;13.30;3.90;;;3.30;99.90;;;;;;4976538;28;20035;-81
2022/12/27 09:33:44;;;;;;;15.88;3.60;;;3.30;99.90;;;;;;4968055;28;20081;-87
2022/12/27 09:36:16;;;;;;;18.00;5.03;;;3.40;99.90;;;;;;4991233;28;20082;-80
2022/12/27 09:38:43;;;;;;;17.63;3.97;;;3.40;99.90;;;;;;4991084;28;20924;-81
2022/12/27 09:41:17;;;;;;;18.15;4.82;;;3.50;99.90;;;;;;4974063;28;20054;-80
2022/12/27 09:43:53;;;;;;;23.33;5.07;;;3.40;99.90;;;;;;4978354;28;20078;-80
2022/12/27 09:46:28;;;;;;;17.85;5.22;;;3.40;99.90;;;;;;4991751;28;20043;-80
2022/12/27 09:48:55;;;;;;;20.25;4.43;;;3.50;99.90;;;;;;4975024;28;20057;-82
2022/12/27 09:51:28;;;;;;;19.08;4.57;;;3.50;99.90;;;;;;4975207;28;20043;-80
2022/12/27 09:54:12;;;;;;;13.55;4.13;;;3.60;99.90;;;;;;4973959;28;20051;-79
2022/12/27 09:56:38;;;;;;;18.80;4.78;;;3.60;99.90;;;;;;4989650;28;20058;-80
2022/12/27 09:59:08;;;;;;;16.27;4.97;;;3.70;99.90;;;;;;4967009;28;20138;-80
2022/12/27 10:01:39;;;;;;;26.83;4.75;;;3.60;99.90;;;;;;4973560;28;20079;-79
2022/12/27 10:04:12;;;;;;;18.02;4.47;;;3.70;99.90;;;;;;4982613;28;20111;-82
2022/12/27 10:06:46;;;;;;;15.57;4.30;;;3.80;99.90;;;;;;4987336;28;20046;-78
2022/12/27 10:09:57;;;;;;;23.60;4.93;;;3.90;99.90;;;;;;4991209;28;20050;-80
2022/12/27 10:12:44;;;;;;;17.10;4.43;;;3.90;99.90;;;;;;4934500;28;20054;-82
2022/12/27 10:15:34;;;;;;;14.82;4.20;;;3.90;99.90;;;;;;4987278;28;20128;-80
2022/12/27 10:18:19;;;;;;;10.55;3.92;;;3.90;99.90;;;;;;4965169;28;20042;-79
2022/12/27 10:20:57;;;;;;;14.43;4.10;;;4.00;99.90;;;;;;4989824;28;20742;-79
2022/12/27 10:23:26;;;;;;;14.45;3.72;;;4.10;99.90;;;;;;4959490;28;20104;-80
2022/12/27 10:26:10;;;;;;;18.20;3.55;;;4.10;99.90;;;;;;4967517;28;20046;-79
2022/12/27 10:28:55;;;;;;;28.52;5.45;;;4.20;99.90;;;;;;4955320;28;20045;-78
2022/12/27 10:31:22;;;;;;;15.70;4.32;;;4.20;99.90;;;;;;4979215;28;20085;-79
2022/12/27 10:33:50;;;;;;;18.30;4.80;;;4.20;99.90;;;;;;4970793;28;20053;-80
2022/12/27 10:36:23;;;;;;;21.73;7.10;;;4.30;99.90;;;;;;4979151;28;20485;-80
2022/12/27 10:38:49;;;;;;;18.83;4.45;;;4.30;99.90;;;;;;4984085;28;20910;-79
2022/12/27 10:41:25;;;;;;;13.95;4.30;;;4.40;99.90;;;;;;4953384;28;20066;-80
2022/12/27 10:43:52;;;;;;;;;;;4.50;99.90;;;;;;4970535;28;20062;-82
2022/12/27 10:46:29;;;;;;;37.72;11.10;;;4.50;99.90;;;;;;4972385;28;20376;-81
2022/12/27 10:49:05;;;;;;;17.33;3.80;;;4.70;99.90;;;;;;4970745;28;20097;-80
2022/12/27 10:51:52;;;;;;;14.50;4.93;;;4.80;99.90;;;;;;4963629;28;20043;-86
2022/12/27 10:54:20;;;;;;;19.63;5.10;;;4.80;99.90;;;;;;4966824;28;20054;-81
2022/12/27 10:56:46;;;;;;;18.90;3.80;;;4.80;99.90;;;;;;4984997;28;20138;-78
2022/12/27 10:59:19;;;;;;;18.63;5.30;;;4.80;99.90;;;;;;4970498;28;20136;-79
2022/12/27 11:02:00;;;;;;;10.52;3.47;;;4.80;99.90;;;;;;4969299;28;20488;-78
2022/12/27 11:04:27;;;;;;;18.92;3.35;;;4.80;99.90;;;;;;4982204;28;20077;-79
2022/12/27 11:07:01;;;;;;;8.75;3.15;;;4.90;99.90;;;;;;4964801;28;20035;-78
2022/12/27 11:09:32;;;;;;;10.32;3.55;;;5.10;99.90;;;;;;4984025;28;20535;-81
2022/12/27 11:12:20;;;;;;;15.48;3.22;;;5.20;99.90;;;;;;4980765;28;20050;-79
2022/12/27 11:14:56;;;;;;;11.52;3.60;;;5.20;99.90;;;;;;4986580;28;20096;-79
2022/12/27 11:17:27;;;;;;;13.80;4.57;;;5.30;99.90;;;;;;4969845;28;20047;-82
2022/12/27 11:19:53;;;;;;;16.60;4.10;;;5.30;99.90;;;;;;4979634;28;20070;-82
2022/12/27 11:22:18;;;;;;;17.73;5.47;;;5.30;99.90;;;;;;4971829;28;20077;-80
2022/12/27 11:24:46;;;;;;;15.35;5.15;;;5.30;99.90;;;;;;4965841;28;20130;-82
2022/12/27 11:27:25;;;;;;;16.70;4.03;;;5.30;99.90;;;;;;4983158;28;20054;-82
2022/12/27 11:29:54;;;;;;;17.00;4.55;;;5.40;99.90;;;;;;4975208;28;20051;-80
2022/12/27 11:32:22;;;;;;;18.45;4.68;;;5.40;99.90;;;;;;4975931;28;20047;-79
2022/12/27 11:34:51;;;;;;;20.05;5.05;;;5.30;99.90;;;;;;4964840;28;20102;-78
2022/12/27 11:37:21;;;;;;;14.65;4.05;;;5.30;99.90;;;;;;4956039;28;20061;-81
2022/12/27 11:39:52;;;;;;;11.38;4.38;;;5.20;99.90;;;;;;4985992;28;20042;-80
2022/12/27 11:42:43;;;;;;;7.80;2.50;;;5.30;99.90;;;;;;4968912;28;20042;-79
2022/12/27 11:45:18;;;;;;;14.85;3.58;;;5.30;99.90;;;;;;4987076;28;20177;-85
2022/12/27 11:47:50;;;;;;;13.63;3.22;;;5.30;99.90;;;;;;4954700;28;20445;-79
2022/12/27 11:50:46;;;;;;;11.55;3.17;;;5.40;99.90;;;;;;4966144;28;20057;-80
2022/12/27 11:53:43;;;;;;;11.73;2.38;;;5.40;99.90;;;;;;4972880;28;20061;-82
2022/12/27 11:56:24;;;;;;;10.15;2.75;;;5.50;99.90;;;;;;4990966;28;20087;-80
2022/12/27 11:58:55;;;;;;;19.15;6.40;;;5.60;99.90;;;;;;4959644;28;20403;-81
2022/12/27 12:01:47;;;;;;;12.30;3.30;;;5.60;99.90;;;;;;4989524;28;20046;-80
2022/12/27 12:04:50;;;;;;;15.73;2.92;;;5.60;99.90;;;;;;4976781;28;20072;-79
2022/12/27 12:07:39;;;;;;;17.25;2.95;;;5.60;99.90;;;;;;4989210;28;20046;-79
2022/12/27 12:10:20;;;;;;;12.23;2.75;;;5.60;99.90;;;;;;4989274;28;20480;-80
2022/12/27 12:13:09;;;;;;;12.68;3.10;;;5.60;99.90;;;;;;4985484;28;20576;-80
2022/12/27 12:15:53;;;;;;;15.98;3.63;;;5.50;99.90;;;;;;4971810;28;20062;-80
2022/12/27 12:18:57;;;;;;;14.90;3.90;;;5.50;99.90;;;;;;4987585;28;20141;-79
2022/12/27 12:21:26;;;;;;;11.27;2.45;;;5.50;99.90;;;;;;4953334;28;20055;-81
2022/12/27 12:23:58;;;;;;;14.98;2.97;;;5.40;99.90;;;;;;4981191;28;20561;-82
2022/12/27 12:26:25;;;;;;;10.48;2.38;;;5.40;99.90;;;;;;4961532;28;20047;-81
2022/12/27 12:29:32;;;;;;;14.70;3.08;;;5.40;99.90;;;;;;4950862;28;20062;-78
2022/12/27 12:32:13;;;;;;;15.23;2.85;;;5.30;99.90;;;;;;4917289;29;20056;-78
2022/12/27 12:34:50;;;;;;;10.25;2.60;;;5.30;99.90;;;;;;4909144;29;20522;-79
2022/12/27 12:38:00;;;;;;;10.85;2.45;;;5.30;99.90;;;;;;4945180;28;20054;-77
2022/12/27 12:40:47;;;;;;;12.75;2.63;;;5.40;99.90;;;;;;5001303;28;20131;-81
2022/12/27 12:43:46;;;;;;;16.52;2.47;;;5.40;99.90;;;;;;4967710;28;20058;-78
2022/12/27 12:46:46;;;;;;;11.52;3.10;;;5.50;99.90;;;;;;4959020;28;20055;-81
2022/12/27 12:49:43;;;;;;;11.93;2.67;;;5.50;99.90;;;;;;4973096;28;20762;-79
2022/12/27 12:52:14;;;;;;;;;;;5.50;99.90;;;;;;4974401;28;20053;-78
2022/12/27 12:55:03;;;;;;;9.55;2.80;;;5.60;99.90;;;;;;4959594;28;19925;-80
2022/12/27 12:57:46;;;;;;;10.35;3.53;;;5.60;99.90;;;;;;4972854;28;20058;-79
2022/12/27 13:00:37;;;;;;;9.95;3.25;;;5.80;99.90;;;;;;4969302;28;20093;-82
2022/12/27 13:03:58;;;;;;;13.48;3.65;;;5.80;99.90;;;;;;4974497;28;20085;-85
2022/12/27 13:06:32;;;;;;;8.98;3.38;;;5.90;99.90;;;;;;4954650;28;20049;-82
2022/12/27 13:09:44;;;;;;;15.85;3.75;;;6.00;99.90;;;;;;4962180;28;20042;-79
2022/12/27 13:12:36;;;;;;;15.25;3.60;;;6.10;99.90;;;;;;4963019;28;20119;-81
2022/12/27 13:15:22;;;;;;;8.23;3.10;;;6.10;99.90;;;;;;4973685;28;20053;-82
2022/12/27 13:18:13;;;;;;;16.35;5.15;;;6.30;99.90;;;;;;4958975;28;20069;-85
2022/12/27 13:21:11;;;;;;;10.93;3.88;;;6.40;99.90;;;;;;4972408;28;20078;-80
2022/12/27 13:23:39;;;;;;;18.20;5.15;;;6.40;99.90;;;;;;4950676;28;20436;-83
2022/12/27 13:26:24;;;;;;;18.67;6.05;;;6.30;96.60;;;;;;4959431;28;20503;-79
2022/12/27 13:29:27;;;;;;;9.50;4.07;;;6.30;93.90;;;;;;4969078;28;20469;-83
2022/12/27 13:32:22;;;;;;;19.58;5.70;;;6.20;67.00;;;;;;4960612;28;20126;-77
2022/12/27 13:34:57;;;;;;;14.15;4.25;;;6.10;52.10;;;;;;4979279;28;20523;-76
2022/12/27 13:37:33;;;;;;;16.88;5.18;;;6.10;99.90;;;;;;4990939;28;20523;-78
2022/12/27 13:40:18;;;;;;;;;;;6.10;99.90;;;;;;4975265;28;20484;-82
2022/12/27 13:47:40;;;;;;;14.00;4.32;;;6.20;99.90;;;;;;4986655;28;20054;-82
2022/12/27 13:50:45;;;;;;;;;;;;;;;;;;;;;
2022/12/27 13:53:45;;;;;;;17.55;4.88;;;6.20;99.90;;;;;;4988175;28;20056;-83
2022/12/27 13:56:28;;;;;;;14.77;4.72;;;6.30;99.90;;;;;;4992763;28;20076;-82
2022/12/27 13:58:54;;;;;;;15.57;4.97;;;6.20;99.90;;;;;;4976358;28;20057;-88
2022/12/27 14:01:29;;;;;;;12.80;5.15;;;6.20;99.90;;;;;;4959608;28;20046;-87
2022/12/27 14:04:07;;;;;;;23.10;5.80;;;6.20;99.90;;;;;;4983281;28;20042;-88
2022/12/27 14:07:06;;;;;;;14.73;6.07;;;6.20;99.90;;;;;;4978211;28;20044;-81
2022/12/27 14:09:50;;;;;;;15.73;7.07;;;6.10;99.90;;;;;;4994557;28;20064;-84
2022/12/27 14:12:34;;;;;;;16.92;7.30;;;6.10;99.90;;;;;;4964561;28;20056;-82
2022/12/27 14:15:03;;;;;;;19.05;8.02;;;6.10;99.90;;;;;;4980444;28;20070;-81
2022/12/27 14:17:41;;;;;;;13.68;7.75;;;6.00;99.90;;;;;;4975640;28;20101;-81
2022/12/27 14:20:32;;;;;;;18.88;9.95;;;6.00;99.90;;;;;;4975479;28;20049;-83
2022/12/27 14:23:19;;;;;;;21.13;9.73;;;6.00;99.90;;;;;;4991542;28;20054;-87
2022/12/27 14:26:03;;;;;;;;;;;6.10;99.90;;;;;;4975894;28;20042;-81
2022/12/27 14:28:35;;;;;;;18.63;11.02;;;6.00;87.50;;;;;;4994654;28;19922;-82
2022/12/27 14:31:19;;;;;;;21.55;11.48;;;6.00;99.90;;;;;;4977826;28;20498;-81
2022/12/27 14:34:06;;;;;;;24.38;12.95;;;5.90;95.10;;;;;;4978237;28;20460;-82
2022/12/27 14:36:45;;;;;;;31.48;13.43;;;5.90;99.90;;;;;;4968223;28;20072;-83
2022/12/27 14:40:00;;;;;;;24.15;13.23;;;5.80;99.90;;;;;;4972669;28;20048;-82
2022/12/27 14:42:41;;;;;;;23.55;13.40;;;5.80;99.90;;;;;;4987878;28;20081;-82
2022/12/27 14:45:37;;;;;;;27.23;14.32;;;5.70;99.90;;;;;;4974534;28;20073;-84
2022/12/27 14:48:51;;;;;;;27.75;15.98;;;5.70;99.90;;;;;;4966978;28;20057;-82
2022/12/27 14:51:51;;;;;;;25.90;14.75;;;5.60;99.90;;;;;;4993048;28;20046;-82
2022/12/27 14:54:39;;;;;;;24.45;14.77;;;5.50;99.90;;;;;;4981638;28;20704;-82
2022/12/27 14:57:20;;;;;;;24.00;15.88;;;5.40;99.90;;;;;;4976885;28;20046;-83
2022/12/27 15:00:00;;;;;;;26.88;16.02;;;5.40;99.90;;;;;;4992505;28;20081;-82
2022/12/27 15:02:46;;;;;;;29.65;16.58;;;5.20;99.90;;;;;;4964016;28;20065;-85
2022/12/27 15:05:33;;;;;;;29.05;16.52;;;5.20;99.90;;;;;;4968759;28;20054;-78
2022/12/27 15:08:25;;;;;;;30.10;17.25;;;5.20;99.90;;;;;;4991254;28;20640;-85
2022/12/27 15:11:03;;;;;;;32.13;16.75;;;5.20;99.90;;;;;;4982372;28;20076;-80
2022/12/27 15:13:37;;;;;;;28.83;16.95;;;5.20;99.90;;;;;;4966384;28;20143;-77
2022/12/27 15:16:24;;;;;;;37.25;18.15;;;5.20;99.90;;;;;;4982771;28;20046;-88
2022/12/27 15:19:02;;;;;;;33.42;18.70;;;5.10;99.90;;;;;;5005318;28;20085;-79
2022/12/27 15:21:45;;;;;;;27.92;17.50;;;5.10;99.90;;;;;;4981045;28;20049;-82
2022/12/27 15:24:24;;;;;;;27.05;17.88;;;5.10;99.90;;;;;;4972972;28;20050;-79